Time;durP1;ratioP1;P1;durP2;ratioP2;P2;SDS_P1;SDS_P2;PMS_P1;PMS_P2;Temp;Humidity;BMP_temperature;BMP_pressure;BME280_temperature;BME280_humidity;BME280_pressure;Samples;Min_cycle;Max_cycle;Signal;HPM_P1;HPM_P2
2022/10/24 00:01:37;;;;;;;5.03;1.30;;;15.50;99.90;;;;;;7403866;19;20348;-87
2022/10/24 00:04:06;;;;;;;3.90;1.23;;;15.40;99.90;;;;;;7403465;19;19929;-87
2022/10/24 00:06:35;;;;;;;3.17;1.60;;;15.40;99.90;;;;;;7404111;19;19918;-87
2022/10/24 00:09:04;;;;;;;5.20;1.30;;;15.40;99.90;;;;;;7402983;19;19921;-86
2022/10/24 00:11:33;;;;;;;5.28;1.60;;;15.40;99.90;;;;;;7403881;19;19919;-89
2022/10/24 00:14:03;;;;;;;4.50;1.40;;;15.40;99.90;;;;;;7401535;19;20368;-88
2022/10/24 00:16:32;;;;;;;3.53;0.80;;;15.40;99.90;;;;;;7404414;19;20358;-86
2022/10/24 00:19:04;;;;;;;;;;;15.40;99.90;;;;;;7406193;19;19937;-87
2022/10/24 00:21:32;;;;;;;4.53;0.77;;;15.40;99.90;;;;;;7404970;19;20329;-87
2022/10/24 00:24:01;;;;;;;2.53;0.55;;;15.50;99.90;;;;;;7406832;19;19958;-87
2022/10/24 00:26:30;;;;;;;2.25;0.80;;;15.40;99.90;;;;;;7403379;19;19918;-87
2022/10/24 00:28:59;;;;;;;3.60;1.15;;;15.40;99.90;;;;;;7407254;19;19919;-86
2022/10/24 00:31:28;;;;;;;4.65;1.35;;;15.40;99.90;;;;;;7403325;19;19925;-87
2022/10/24 00:33:58;;;;;;;5.00;0.65;;;15.50;99.90;;;;;;7401819;19;19914;-86
2022/10/24 00:36:30;;;;;;;;;;;15.50;99.90;;;;;;7405703;19;19931;-87
2022/10/24 00:38:58;;;;;;;4.43;1.73;;;15.50;99.90;;;;;;7403210;19;19934;-87
2022/10/24 00:41:30;;;;;;;6.22;1.75;;;15.40;99.90;;;;;;7402788;19;20271;-88
2022/10/24 00:44:16;;;;;;;5.18;1.10;;;15.40;99.90;;;;;;7402712;19;19925;-87
2022/10/24 00:46:48;;;;;;;3.00;0.90;;;15.40;99.90;;;;;;7402931;19;19918;-87
2022/10/24 00:49:20;;;;;;;5.03;1.25;;;15.40;99.90;;;;;;7405062;19;19926;-88
2022/10/24 00:51:55;;;;;;;3.28;1.10;;;15.40;99.90;;;;;;7405645;19;20371;-87
2022/10/24 00:54:24;;;;;;;2.78;0.80;;;15.40;99.90;;;;;;7402716;19;19919;-88
2022/10/24 00:57:03;;;;;;;5.63;1.42;;;15.40;99.90;;;;;;7405424;19;19925;-88
2022/10/24 00:59:32;;;;;;;4.95;1.55;;;15.40;99.90;;;;;;7404653;19;19947;-88
2022/10/24 01:02:01;;;;;;;5.88;1.10;;;15.30;99.90;;;;;;7403468;19;19922;-87
2022/10/24 01:04:30;;;;;;;3.53;1.73;;;15.30;99.90;;;;;;7404096;19;19914;-88
2022/10/24 01:07:15;;;;;;;3.90;0.80;;;15.30;99.90;;;;;;7404241;19;19926;-87
2022/10/24 01:10:18;;;;;;;3.05;1.65;;;15.30;99.90;;;;;;7408284;19;20265;-87
2022/10/24 01:12:55;;;;;;;2.45;1.10;;;15.20;99.90;;;;;;7408882;19;19922;-86
2022/10/24 01:15:33;;;;;;;3.63;1.50;;;15.20;99.90;;;;;;7410169;19;19918;-87
2022/10/24 01:18:08;;;;;;;3.97;0.70;;;15.30;99.90;;;;;;7411383;19;19934;-86
2022/10/24 01:21:07;;;;;;;5.45;1.27;;;15.30;99.90;;;;;;7412001;19;20341;-87
2022/10/24 01:23:59;;;;;;;3.65;0.90;;;15.40;99.90;;;;;;7409371;19;19925;-88
2022/10/24 01:27:01;;;;;;;3.78;0.98;;;15.40;99.90;;;;;;7410848;19;19970;-88
2022/10/24 01:29:52;;;;;;;5.88;1.33;;;15.40;99.90;;;;;;7409178;19;19929;-87
2022/10/24 01:32:35;;;;;;;3.85;1.02;;;15.40;99.90;;;;;;7410002;19;19922;-88
2022/10/24 01:35:11;;;;;;;3.25;0.95;;;15.40;99.90;;;;;;7412519;19;19922;-88
2022/10/24 01:37:44;;;;;;;3.40;0.85;;;15.40;99.90;;;;;;7411305;19;19926;-87
2022/10/24 01:40:18;;;;;;;3.13;0.63;;;15.40;99.90;;;;;;7412776;19;20007;-89
2022/10/24 01:42:48;;;;;;;2.83;1.02;;;15.50;99.90;;;;;;7408862;19;19914;-89
2022/10/24 01:45:25;;;;;;;3.00;0.60;;;15.40;99.90;;;;;;7409440;19;19926;-87
2022/10/24 01:47:57;;;;;;;5.57;1.02;;;15.40;99.90;;;;;;7411598;19;20343;-89
2022/10/24 01:50:28;;;;;;;3.25;0.73;;;15.40;99.90;;;;;;7408581;19;20496;-89
2022/10/24 01:52:58;;;;;;;3.35;0.40;;;15.40;99.90;;;;;;7408432;19;19922;-89
2022/10/24 01:55:27;;;;;;;3.53;1.05;;;15.40;99.90;;;;;;7407869;19;19919;-88
2022/10/24 01:57:56;;;;;;;2.22;0.70;;;15.40;99.90;;;;;;7407402;19;19992;-89
2022/10/24 02:00:28;;;;;;;5.22;0.90;;;15.30;99.90;;;;;;7407404;19;20284;-88
2022/10/24 02:03:02;;;;;;;6.15;0.75;;;15.30;99.90;;;;;;7409331;19;20248;-88
2022/10/24 02:05:35;;;;;;;5.85;2.13;;;15.20;99.90;;;;;;7407710;19;19918;-88
2022/10/24 02:08:08;;;;;;;3.45;1.00;;;15.20;99.90;;;;;;7407406;19;19933;-87
2022/10/24 02:10:41;;;;;;;4.68;1.05;;;15.10;99.90;;;;;;7408425;19;19919;-88
2022/10/24 02:13:15;;;;;;;5.68;1.55;;;15.10;99.90;;;;;;7405795;19;19915;-88
2022/10/24 02:15:52;;;;;;;3.22;0.63;;;15.10;99.90;;;;;;7407203;19;20281;-88
2022/10/24 02:18:22;;;;;;;3.65;0.85;;;15.10;99.90;;;;;;7406895;19;19914;-88
2022/10/24 02:20:59;;;;;;;5.40;1.38;;;15.10;99.90;;;;;;7404646;19;19915;-88
2022/10/24 02:23:33;;;;;;;3.53;1.23;;;15.10;99.90;;;;;;7407202;19;19915;-88
2022/10/24 02:26:03;;;;;;;3.30;0.88;;;15.10;99.90;;;;;;7411259;19;19911;-88
2022/10/24 02:28:39;;;;;;;5.18;0.75;;;15.10;99.90;;;;;;7407254;19;19914;-88
2022/10/24 02:31:14;;;;;;;;;;;15.20;99.90;;;;;;7407036;19;20257;-88
2022/10/24 02:33:45;;;;;;;4.47;1.10;;;15.20;99.90;;;;;;7405617;19;19931;-88
2022/10/24 02:36:18;;;;;;;5.25;1.83;;;15.20;99.90;;;;;;7406442;19;20333;-88
2022/10/24 02:38:50;;;;;;;4.82;0.93;;;15.20;99.90;;;;;;7406825;19;19922;-89
2022/10/24 02:41:24;;;;;;;6.90;1.30;;;15.30;99.90;;;;;;7406485;19;19914;-88
2022/10/24 02:43:55;;;;;;;1.90;0.80;;;15.30;99.90;;;;;;7402687;19;19919;-88
2022/10/24 02:46:27;;;;;;;6.82;1.05;;;15.40;99.90;;;;;;7406650;19;20411;-88
2022/10/24 02:49:00;;;;;;;7.35;1.13;;;15.40;99.90;;;;;;7406385;19;20967;-88
2022/10/24 02:51:31;;;;;;;5.10;1.10;;;15.40;99.90;;;;;;7406256;19;19943;-88
2022/10/24 02:54:02;;;;;;;5.03;1.58;;;15.50;99.90;;;;;;7405125;19;20328;-87
2022/10/24 02:56:32;;;;;;;4.20;1.23;;;15.50;99.90;;;;;;7406172;19;19972;-88
2022/10/24 02:59:01;;;;;;;4.43;0.93;;;15.50;99.90;;;;;;7405582;19;19939;-88
2022/10/24 03:01:33;;;;;;;5.05;1.05;;;15.60;99.90;;;;;;7405972;19;19982;-88
2022/10/24 03:04:01;;;;;;;5.45;0.85;;;15.60;99.90;;;;;;7405983;19;19937;-88
2022/10/24 03:06:30;;;;;;;3.30;0.77;;;15.60;99.90;;;;;;7405739;19;20371;-88
2022/10/24 03:08:59;;;;;;;5.90;1.00;;;15.50;99.90;;;;;;7405671;19;20252;-86
2022/10/24 03:11:28;;;;;;;5.63;1.23;;;15.60;99.90;;;;;;7405034;19;19982;-87
2022/10/24 03:13:57;;;;;;;7.90;1.63;;;15.60;99.90;;;;;;7403821;19;20397;-87
2022/10/24 03:16:27;;;;;;;4.75;1.20;;;15.60;99.90;;;;;;7405666;19;20348;-87
2022/10/24 03:18:58;;;;;;;;;;;15.70;99.90;;;;;;7406800;19;20341;-86
2022/10/24 03:21:28;;;;;;;4.35;0.77;;;15.70;99.90;;;;;;7405140;19;19922;-87
2022/10/24 03:23:57;;;;;;;6.18;1.45;;;15.80;99.90;;;;;;7407538;19;19923;-87
2022/10/24 03:26:26;;;;;;;5.03;1.23;;;15.70;99.90;;;;;;7405361;19;20304;-88
2022/10/24 03:28:55;;;;;;;3.65;1.25;;;15.70;99.90;;;;;;7405221;19;19918;-88
2022/10/24 03:31:23;;;;;;;3.53;1.13;;;15.70;99.90;;;;;;7404723;19;20492;-87
2022/10/24 03:33:52;;;;;;;3.28;0.52;;;15.60;99.90;;;;;;7404713;19;20281;-88
2022/10/24 03:36:24;;;;;;;5.10;1.15;;;15.60;99.90;;;;;;7405071;19;19919;-88
2022/10/24 03:38:53;;;;;;;6.03;1.25;;;15.70;99.90;;;;;;7405252;19;19929;-88
2022/10/24 03:41:22;;;;;;;4.32;1.50;;;15.70;99.90;;;;;;7404412;19;19918;-87
2022/10/24 03:43:50;;;;;;;3.95;0.90;;;15.70;99.90;;;;;;7404706;19;19915;-87
2022/10/24 03:46:19;;;;;;;5.85;1.42;;;15.70;99.90;;;;;;7404693;19;19910;-87
2022/10/24 03:48:48;;;;;;;4.93;0.63;;;15.70;99.90;;;;;;7404496;19;19918;-87
2022/10/24 03:51:17;;;;;;;4.25;1.05;;;15.70;99.90;;;;;;7407579;19;19922;-87
2022/10/24 03:53:48;;;;;;;5.00;1.63;;;15.60;99.90;;;;;;7405592;19;19929;-87
2022/10/24 03:56:17;;;;;;;3.50;1.35;;;15.70;99.90;;;;;;7404532;19;19932;-87
2022/10/24 03:58:46;;;;;;;3.75;0.95;;;15.70;99.90;;;;;;7406876;19;19937;-87
2022/10/24 04:01:16;;;;;;;6.25;0.93;;;15.70;99.90;;;;;;7406356;19;19925;-87
2022/10/24 04:03:45;;;;;;;3.95;0.93;;;15.60;99.90;;;;;;7404335;19;19918;-87
2022/10/24 04:06:14;;;;;;;4.15;0.88;;;15.70;99.90;;;;;;7407793;19;19918;-88
2022/10/24 04:08:43;;;;;;;3.05;0.73;;;15.70;99.90;;;;;;7404007;19;19918;-87
2022/10/24 04:11:15;;;;;;;3.47;1.23;;;15.70;99.90;;;;;;7403945;19;19921;-87
2022/10/24 04:13:44;;;;;;;4.75;1.00;;;15.70;99.90;;;;;;7403090;19;19910;-88
2022/10/24 04:16:13;;;;;;;7.82;1.60;;;15.70;99.90;;;;;;7403472;19;19914;-88
2022/10/24 04:18:42;;;;;;;5.47;1.05;;;15.70;99.90;;;;;;7406770;19;19989;-88
2022/10/24 04:21:11;;;;;;;5.53;0.98;;;15.80;99.90;;;;;;7403567;19;20233;-88
2022/10/24 04:23:41;;;;;;;;;;;15.80;99.90;;;;;;7406186;19;19927;-88
2022/10/24 04:26:10;;;;;;;6.82;1.33;;;15.80;99.90;;;;;;7403427;19;19914;-86
2022/10/24 04:28:42;;;;;;;5.38;1.52;;;15.90;99.90;;;;;;7403497;19;19919;-88
2022/10/24 04:31:11;;;;;;;4.28;0.90;;;15.90;99.90;;;;;;7401408;19;19922;-88
2022/10/24 04:33:40;;;;;;;6.55;1.75;;;16.00;99.90;;;;;;7403116;19;19915;-88
2022/10/24 04:36:10;;;;;;;5.45;1.50;;;16.00;99.90;;;;;;7403053;19;19970;-87
2022/10/24 04:38:39;;;;;;;8.55;1.42;;;16.00;99.90;;;;;;7403211;19;20328;-87
2022/10/24 04:41:08;;;;;;;2.88;0.65;;;16.00;99.90;;;;;;7404424;19;19915;-88
2022/10/24 04:43:37;;;;;;;4.32;1.35;;;16.00;99.90;;;;;;7404430;19;20237;-86
2022/10/24 04:46:09;;;;;;;3.17;0.88;;;16.00;99.90;;;;;;7411469;19;19926;-86
2022/10/24 04:48:38;;;;;;;3.47;0.90;;;16.00;99.90;;;;;;7409772;19;19911;-87
2022/10/24 04:51:07;;;;;;;3.58;1.13;;;16.00;99.90;;;;;;7409718;19;19906;-87
2022/10/24 04:53:36;;;;;;;3.92;0.95;;;16.00;99.90;;;;;;7410073;19;19915;-87
2022/10/24 04:56:05;;;;;;;7.82;1.25;;;16.10;99.90;;;;;;7409481;19;19922;-87
2022/10/24 04:58:34;;;;;;;2.95;0.80;;;16.00;99.90;;;;;;7409788;19;19942;-87
2022/10/24 05:01:03;;;;;;;3.42;1.30;;;16.00;99.90;;;;;;7410598;19;19935;-86
2022/10/24 05:03:35;;;;;;;3.53;1.30;;;16.10;99.90;;;;;;7410386;19;19918;-87
2022/10/24 05:06:04;;;;;;;7.65;0.80;;;16.00;99.90;;;;;;7412405;19;19929;-87
2022/10/24 05:08:33;;;;;;;3.85;0.95;;;16.10;99.90;;;;;;7411758;19;19915;-88
2022/10/24 05:11:02;;;;;;;6.93;1.45;;;16.00;99.90;;;;;;7411477;19;19907;-88
2022/10/24 05:13:31;;;;;;;5.90;0.70;;;16.00;99.90;;;;;;7408617;19;20002;-87
2022/10/24 05:16:00;;;;;;;7.75;1.05;;;16.00;99.90;;;;;;7408427;19;19918;-87
2022/10/24 05:18:28;;;;;;;2.85;1.23;;;16.00;99.90;;;;;;7407078;19;19907;-86
2022/10/24 05:21:01;;;;;;;5.38;1.05;;;15.90;99.90;;;;;;7410721;19;19919;-87
2022/10/24 05:23:30;;;;;;;5.20;1.42;;;15.90;99.90;;;;;;7410865;19;19914;-87
2022/10/24 05:26:00;;;;;;;4.03;1.30;;;15.90;99.90;;;;;;7413036;19;19914;-88
2022/10/24 05:28:29;;;;;;;3.35;0.70;;;15.90;99.90;;;;;;7408555;19;19918;-88
2022/10/24 05:30:58;;;;;;;5.13;1.00;;;15.90;99.90;;;;;;7408596;19;20354;-87
2022/10/24 05:33:27;;;;;;;5.07;0.73;;;15.90;99.90;;;;;;7408850;19;19921;-88
2022/10/24 05:35:56;;;;;;;2.63;1.00;;;15.90;99.90;;;;;;7405731;19;19926;-87
2022/10/24 05:38:28;;;;;;;5.63;0.70;;;15.90;99.90;;;;;;7408251;19;20262;-87
2022/10/24 05:40:57;;;;;;;4.53;0.98;;;15.90;99.90;;;;;;7408344;19;19910;-87
2022/10/24 05:43:25;;;;;;;3.97;0.95;;;15.90;99.90;;;;;;7411217;19;19918;-88
2022/10/24 05:45:54;;;;;;;3.42;1.05;;;15.90;99.90;;;;;;7407980;19;19925;-87
2022/10/24 05:48:23;;;;;;;3.10;1.15;;;15.90;99.90;;;;;;7411982;19;19922;-88
2022/10/24 05:50:52;;;;;;;5.22;1.20;;;15.90;99.90;;;;;;7407977;19;19934;-87
2022/10/24 05:53:21;;;;;;;2.83;0.70;;;15.90;99.90;;;;;;7410722;19;20344;-92
2022/10/24 05:55:52;;;;;;;5.35;0.90;;;15.90;99.90;;;;;;7409688;19;19923;-85
2022/10/24 05:58:21;;;;;;;4.30;1.02;;;15.90;99.90;;;;;;7408149;19;19927;-82
2022/10/24 06:00:52;;;;;;;4.45;0.70;;;16.00;99.90;;;;;;7410634;19;19919;-93
2022/10/24 06:03:20;;;;;;;5.32;0.70;;;16.00;99.90;;;;;;7409356;19;19922;-90
2022/10/24 06:05:49;;;;;;;28.55;3.28;;;16.00;99.90;;;;;;7407451;19;19925;-85
2022/10/24 06:08:18;;;;;;;65.22;7.80;;;16.00;99.90;;;;;;7408843;19;20319;-87
2022/10/24 06:10:49;;;;;;;6.03;0.98;;;16.10;99.90;;;;;;7409514;19;20190;-87
2022/10/24 06:13:20;;;;;;;6.63;1.60;;;16.20;99.90;;;;;;7407044;19;19982;-86
2022/10/24 06:15:49;;;;;;;4.72;1.55;;;16.20;99.90;;;;;;7406609;19;19915;-87
2022/10/24 06:18:18;;;;;;;5.75;0.98;;;16.10;99.90;;;;;;7409509;19;20277;-87
2022/10/24 06:20:47;;;;;;;6.15;0.98;;;16.10;99.90;;;;;;7409103;19;19926;-88
2022/10/24 06:23:16;;;;;;;5.57;1.05;;;16.10;99.90;;;;;;7407712;19;20345;-87
2022/10/24 06:25:44;;;;;;;5.00;1.17;;;16.10;99.90;;;;;;7408150;19;19922;-86
2022/10/24 06:28:14;;;;;;;5.50;1.10;;;16.10;99.90;;;;;;7408589;19;19922;-87
2022/10/24 06:30:47;;;;;;;4.13;0.95;;;16.00;99.90;;;;;;7405241;19;19936;-88
2022/10/24 06:33:16;;;;;;;3.63;0.75;;;16.10;99.90;;;;;;7410061;19;19918;-87
2022/10/24 06:35:44;;;;;;;4.10;0.63;;;16.10;99.90;;;;;;7402543;19;19922;-86
2022/10/24 06:38:13;;;;;;;5.28;0.63;;;16.10;99.90;;;;;;7407915;19;20245;-87
2022/10/24 06:40:42;;;;;;;6.80;0.55;;;16.10;99.90;;;;;;7407067;19;20273;-86
2022/10/24 06:43:11;;;;;;;5.82;1.45;;;16.00;99.90;;;;;;7408033;19;19919;-87
2022/10/24 06:45:40;;;;;;;4.45;0.60;;;16.00;99.90;;;;;;7409062;19;20260;-87
2022/10/24 06:48:12;;;;;;;3.67;0.40;;;16.10;99.90;;;;;;7407873;19;19925;-87
2022/10/24 06:50:41;;;;;;;4.10;1.08;;;16.10;99.90;;;;;;7407831;19;19942;-87
2022/10/24 06:53:11;;;;;;;5.78;0.73;;;16.10;99.90;;;;;;7406800;19;19907;-87
2022/10/24 06:55:40;;;;;;;4.07;0.52;;;16.00;99.90;;;;;;7404865;19;19915;-87
2022/10/24 06:58:09;;;;;;;4.53;0.80;;;15.90;99.90;;;;;;7406051;19;19914;-86
2022/10/24 07:00:39;;;;;;;3.70;0.85;;;15.90;99.90;;;;;;7405796;19;19934;-87
2022/10/24 07:03:16;;;;;;;6.07;1.20;;;16.00;99.90;;;;;;7410268;19;19918;-87
2022/10/24 07:05:45;;;;;;;5.60;0.55;;;16.10;99.90;;;;;;7405096;19;20261;-87
2022/10/24 07:08:14;;;;;;;2.78;0.60;;;16.20;99.90;;;;;;7405333;19;19911;-86
2022/10/24 07:10:43;;;;;;;5.47;0.82;;;16.10;99.90;;;;;;7405883;19;19918;-86
2022/10/24 07:13:12;;;;;;;4.70;0.75;;;16.10;99.90;;;;;;7405054;19;19910;-86
2022/10/24 07:15:44;;;;;;;5.90;1.52;;;16.10;99.90;;;;;;7407969;19;19918;-86
2022/10/24 07:18:18;;;;;;;3.10;0.60;;;16.20;99.90;;;;;;7408333;19;20347;-86
2022/10/24 07:20:47;;;;;;;4.30;0.60;;;16.30;99.90;;;;;;7405536;19;19924;-87
2022/10/24 07:23:17;;;;;;;4.10;0.88;;;16.60;99.90;;;;;;7405427;19;19977;-87
2022/10/24 07:25:45;;;;;;;;;;;17.30;99.90;;;;;;7407972;19;19983;-87
2022/10/24 07:28:15;;;;;;;5.15;0.40;;;18.00;99.90;;;;;;7405295;19;19974;-88
2022/10/24 07:30:46;;;;;;;4.95;0.98;;;18.70;99.90;;;;;;7403610;19;20293;-88
2022/10/24 07:33:18;;;;;;;3.58;0.70;;;18.60;99.90;;;;;;7405769;19;19925;-87
2022/10/24 07:35:46;;;;;;;5.88;0.77;;;18.30;99.90;;;;;;7403688;19;19922;-88
2022/10/24 07:38:15;;;;;;;3.20;0.88;;;18.40;99.90;;;;;;7404876;19;19918;-87
2022/10/24 07:40:44;;;;;;;4.47;1.13;;;18.80;99.90;;;;;;7404205;19;20313;-88
2022/10/24 07:43:13;;;;;;;3.17;1.13;;;18.50;99.90;;;;;;7407063;19;19931;-87
2022/10/24 07:45:43;;;;;;;4.45;0.73;;;17.90;99.90;;;;;;7404842;19;19919;-88
2022/10/24 07:48:13;;;;;;;3.38;0.68;;;17.60;99.90;;;;;;7406608;19;19922;-87
2022/10/24 07:50:48;;;;;;;;;;;17.30;99.90;;;;;;7406714;19;20380;-87
2022/10/24 07:53:17;;;;;;;3.92;0.55;;;17.20;99.90;;;;;;7405983;19;19914;-87
2022/10/24 07:55:46;;;;;;;2.47;0.40;;;17.00;99.90;;;;;;7403314;19;19918;-87
2022/10/24 07:58:16;;;;;;;8.75;0.55;;;17.00;99.90;;;;;;7404604;19;19925;-88
2022/10/24 08:00:46;;;;;;;3.97;0.60;;;17.10;99.90;;;;;;7405790;19;19929;-88
2022/10/24 08:03:15;;;;;;;;;;;17.10;99.90;;;;;;7407672;19;20272;-88
2022/10/24 08:05:44;;;;;;;3.45;0.65;;;17.20;99.90;;;;;;7404385;19;19946;-87
2022/10/24 08:08:21;;;;;;;2.90;1.05;;;17.10;99.90;;;;;;7407416;19;19934;-88
2022/10/24 08:10:50;;;;;;;5.38;0.65;;;17.20;99.90;;;;;;7403282;19;19925;-87
2022/10/24 08:13:19;;;;;;;3.00;0.90;;;17.20;99.90;;;;;;7405006;19;19926;-87
2022/10/24 08:15:48;;;;;;;4.28;0.70;;;17.30;99.90;;;;;;7403477;19;19914;-87
2022/10/24 08:18:17;;;;;;;3.25;0.60;;;17.40;99.90;;;;;;7400887;19;19915;-87
2022/10/24 08:20:45;;;;;;;3.65;0.30;;;17.40;99.90;;;;;;7408050;19;20266;-88
2022/10/24 08:23:14;;;;;;;3.22;0.68;;;17.40;99.90;;;;;;7404767;19;20339;-88
2022/10/24 08:25:46;;;;;;;4.38;0.70;;;17.40;99.90;;;;;;7405948;19;19925;-88
2022/10/24 08:28:15;;;;;;;2.85;0.50;;;17.30;99.90;;;;;;7406050;19;20001;-88
2022/10/24 08:30:44;;;;;;;3.55;0.40;;;17.30;99.90;;;;;;7402479;19;19926;-88
2022/10/24 08:33:13;;;;;;;3.15;0.93;;;17.30;99.90;;;;;;7403618;19;19974;-87
2022/10/24 08:35:45;;;;;;;3.70;0.90;;;17.30;99.90;;;;;;7406328;19;19936;-88
2022/10/24 08:38:14;;;;;;;2.22;0.90;;;17.30;99.90;;;;;;7403780;19;19925;-87
2022/10/24 08:40:47;;;;;;;3.30;0.35;;;17.40;99.90;;;;;;7403220;19;19914;-88
2022/10/24 08:43:18;;;;;;;2.67;0.50;;;17.40;99.90;;;;;;7405763;19;19929;-87
2022/10/24 08:45:55;;;;;;;3.88;0.63;;;17.40;99.90;;;;;;7403291;19;19925;-88
2022/10/24 08:48:28;;;;;;;5.00;0.30;;;17.50;99.90;;;;;;7402869;19;19919;-87
2022/10/24 08:51:04;;;;;;;2.25;0.30;;;17.50;99.90;;;;;;7405812;19;19926;-87
2022/10/24 08:53:34;;;;;;;4.55;0.82;;;17.60;99.90;;;;;;7404784;19;19923;-88
2022/10/24 08:56:08;;;;;;;6.07;0.60;;;17.60;99.90;;;;;;7401650;19;19915;-88
2022/10/24 08:58:42;;;;;;;3.60;0.73;;;17.50;99.90;;;;;;7403180;19;19930;-87
2022/10/24 09:01:18;;;;;;;2.70;0.47;;;17.60;99.90;;;;;;7401810;19;20404;-88
2022/10/24 09:03:50;;;;;;;4.10;0.32;;;17.70;99.90;;;;;;7404919;19;19918;-88
2022/10/24 09:06:22;;;;;;;3.92;0.40;;;17.60;99.90;;;;;;7402288;19;19911;-87
2022/10/24 09:08:54;;;;;;;3.78;0.52;;;17.70;99.90;;;;;;7405308;19;19934;-87
2022/10/24 09:11:31;;;;;;;8.93;1.65;;;17.70;99.90;;;;;;7402058;19;19918;-87
2022/10/24 09:14:03;;;;;;;3.58;0.80;;;17.70;99.90;;;;;;7399878;19;19922;-87
2022/10/24 09:16:32;;;;;;;5.63;0.70;;;17.70;99.90;;;;;;7400397;19;19935;-87
2022/10/24 09:19:02;;;;;;;2.92;0.52;;;17.80;99.90;;;;;;7402723;19;19915;-88
2022/10/24 09:21:30;;;;;;;4.88;0.43;;;17.80;99.90;;;;;;7400777;19;19925;-88
2022/10/24 09:23:59;;;;;;;2.95;0.50;;;17.80;99.90;;;;;;7402285;19;19911;-88
2022/10/24 09:26:34;;;;;;;8.93;0.40;;;17.70;99.90;;;;;;7401644;19;19933;-87
2022/10/24 09:29:03;;;;;;;6.95;0.60;;;17.70;99.90;;;;;;7401308;19;20337;-88
2022/10/24 09:31:32;;;;;;;4.40;0.47;;;17.70;99.90;;;;;;7411735;19;19918;-88
2022/10/24 09:34:03;;;;;;;2.88;0.70;;;17.70;99.90;;;;;;7408527;19;19971;-88
2022/10/24 09:36:32;;;;;;;4.95;0.80;;;17.80;99.90;;;;;;7406647;19;19919;-87
2022/10/24 09:39:25;;;;;;;3.55;0.85;;;17.80;99.90;;;;;;7408883;19;19978;-87
2022/10/24 09:41:57;;;;;;;4.05;0.68;;;17.80;99.90;;;;;;7407820;19;19934;-87
2022/10/24 09:44:36;;;;;;;3.88;0.70;;;17.80;99.90;;;;;;7410153;19;19915;-87
2022/10/24 09:47:08;;;;;;;3.00;0.32;;;17.80;99.90;;;;;;7407798;19;19926;-88
2022/10/24 09:49:40;;;;;;;6.00;0.77;;;17.90;99.90;;;;;;7407926;19;20011;-87
2022/10/24 09:52:19;;;;;;;3.45;1.00;;;17.90;99.90;;;;;;7408601;19;20276;-87
2022/10/24 09:55:04;;;;;;;4.78;0.63;;;17.90;99.90;;;;;;7407953;19;19918;-85
2022/10/24 09:57:42;;;;;;;5.72;0.82;;;17.90;99.90;;;;;;7405262;19;20347;-88
2022/10/24 10:00:24;;;;;;;3.22;0.60;;;17.80;99.90;;;;;;7408312;19;19915;-87
2022/10/24 10:02:58;;;;;;;;;;;17.80;99.90;;;;;;7409683;19;19922;-87
2022/10/24 10:05:28;;;;;;;4.78;0.80;;;17.90;99.90;;;;;;7408652;19;19921;-86
2022/10/24 10:07:59;;;;;;;4.20;1.05;;;17.80;99.90;;;;;;7408286;19;20025;-90
2022/10/24 10:10:34;;;;;;;3.05;0.20;;;17.80;99.90;;;;;;7386678;19;20374;-88
2022/10/24 10:13:23;;;;;;;7.18;0.50;;;17.80;99.90;;;;;;7400546;19;20346;-87
2022/10/24 10:15:55;;;;;;;3.33;0.70;;;18.00;99.90;;;;;;7408549;19;19919;-86
2022/10/24 10:18:31;;;;;;;4.13;1.05;;;17.90;99.90;;;;;;7405270;19;20339;-86
2022/10/24 10:21:04;;;;;;;5.53;0.40;;;18.00;99.90;;;;;;7407691;19;20362;-85
2022/10/24 10:23:36;;;;;;;4.10;0.52;;;18.10;99.90;;;;;;7407765;19;20027;-86
2022/10/24 10:26:21;;;;;;;4.30;0.88;;;18.30;99.90;;;;;;7405803;19;20006;-87
2022/10/24 10:28:58;;;;;;;3.90;0.77;;;18.40;99.90;;;;;;7408913;19;19922;-85
2022/10/24 10:31:36;;;;;;;2.65;0.10;;;18.50;99.90;;;;;;7407707;19;19913;-86
2022/10/24 10:34:16;;;;;;;5.22;0.75;;;18.50;99.90;;;;;;7408034;19;19925;-87
2022/10/24 10:36:59;;;;;;;5.40;0.50;;;18.60;99.90;;;;;;7404027;19;20266;-88
2022/10/24 10:39:50;;;;;;;4.93;0.30;;;18.60;99.90;;;;;;7407760;19;19922;-88
2022/10/24 10:42:23;;;;;;;3.25;0.30;;;18.70;99.90;;;;;;7403088;19;20249;-87
2022/10/24 10:45:09;;;;;;;1.85;0.30;;;18.60;99.90;;;;;;7405368;19;19939;-89
2022/10/24 10:47:50;;;;;;;3.38;0.30;;;18.50;99.90;;;;;;7405081;19;19915;-89
2022/10/24 10:50:28;;;;;;;4.88;0.20;;;18.50;99.90;;;;;;7407092;19;19927;-91
2022/10/24 10:53:06;;;;;;;2.38;0.30;;;18.40;99.90;;;;;;7409421;19;19919;-90
2022/10/24 10:55:45;;;;;;;4.47;0.50;;;18.40;99.90;;;;;;7407161;19;19939;-91
2022/10/24 10:58:27;;;;;;;5.03;0.30;;;18.40;99.90;;;;;;7407494;19;19911;-89
2022/10/24 11:01:08;;;;;;;3.65;0.45;;;18.40;99.90;;;;;;7407349;19;20332;-89
2022/10/24 11:03:44;;;;;;;4.28;1.05;;;18.30;99.90;;;;;;7407900;19;19918;-88
2022/10/24 11:06:27;;;;;;;2.67;0.40;;;18.40;99.90;;;;;;7406465;19;20016;-89
2022/10/24 11:09:17;;;;;;;3.17;0.50;;;18.50;99.90;;;;;;7407637;19;19929;-88
2022/10/24 11:11:51;;;;;;;3.10;0.75;;;18.50;99.90;;;;;;7406669;19;19922;-90
2022/10/24 11:14:29;;;;;;;4.32;0.50;;;18.50;99.90;;;;;;7406467;19;19932;-88
2022/10/24 11:17:20;;;;;;;5.60;0.93;;;18.50;99.90;;;;;;7404825;19;19914;-89
2022/10/24 11:20:02;;;;;;;3.38;0.98;;;18.60;99.90;;;;;;7406341;19;19933;-89
2022/10/24 11:22:38;;;;;;;1.77;0.60;;;18.70;99.90;;;;;;7407565;19;20388;-89
2022/10/24 11:25:17;;;;;;;3.03;0.77;;;18.60;99.90;;;;;;7407313;19;19918;-87
2022/10/24 11:27:52;;;;;;;2.22;0.50;;;18.70;99.90;;;;;;7407065;19;20360;-88
2022/10/24 11:30:39;;;;;;;3.05;0.60;;;18.60;99.90;;;;;;7405185;19;20082;-88
2022/10/24 11:33:16;;;;;;;4.18;0.50;;;18.60;99.90;;;;;;7408302;19;20372;-89
2022/10/24 11:36:01;;;;;;;2.28;0.40;;;18.60;99.90;;;;;;7407465;19;19927;-89
2022/10/24 11:38:34;;;;;;;3.33;0.22;;;18.40;99.90;;;;;;7407289;19;19950;-89
2022/10/24 11:41:31;;;;;;;4.00;0.40;;;18.40;99.90;;;;;;7406891;19;20356;-89
2022/10/24 11:44:04;;;;;;;2.10;0.10;;;18.30;99.90;;;;;;7406536;19;20634;-90
2022/10/24 11:46:40;;;;;;;2.42;0.30;;;18.30;99.90;;;;;;7406051;19;20320;-89
2022/10/24 11:49:17;;;;;;;;;;;18.50;99.90;;;;;;7407656;19;19918;-88
2022/10/24 11:51:52;;;;;;;1.63;0.20;;;18.50;99.90;;;;;;7405470;19;19922;-89
2022/10/24 11:54:27;;;;;;;4.85;0.28;;;18.40;99.90;;;;;;7404074;19;19970;-89
2022/10/24 11:57:00;;;;;;;3.13;0.30;;;18.40;99.90;;;;;;7405890;19;20236;-89
2022/10/24 11:59:29;;;;;;;3.83;0.20;;;18.30;99.90;;;;;;7405384;19;19943;-89
2022/10/24 12:02:28;;;;;;;4.07;0.80;;;18.20;99.90;;;;;;7405285;19;19921;-89
2022/10/24 12:05:15;;;;;;;4.30;0.38;;;18.20;99.90;;;;;;7404769;19;19985;-89
2022/10/24 12:08:08;;;;;;;4.82;0.40;;;18.20;99.90;;;;;;7408490;19;19925;-89
2022/10/24 12:10:54;;;;;;;5.55;0.35;;;18.20;99.90;;;;;;7404200;19;19951;-89
2022/10/24 12:13:37;;;;;;;3.08;0.63;;;18.20;99.90;;;;;;7406541;19;19910;-90
2022/10/24 12:16:16;;;;;;;2.35;0.43;;;18.30;99.90;;;;;;7407173;19;19915;-89
2022/10/24 12:18:50;;;;;;;2.28;0.45;;;18.20;99.90;;;;;;7407091;19;19923;-89
2022/10/24 12:21:27;;;;;;;3.03;0.20;;;18.20;99.90;;;;;;7405339;19;19927;-89
2022/10/24 12:23:57;;;;;;;5.95;0.85;;;18.20;99.90;;;;;;7406072;19;19926;-89
2022/10/24 12:26:29;;;;;;;2.10;0.13;;;18.30;99.90;;;;;;7407274;19;20337;-88
2022/10/24 12:29:00;;;;;;;2.33;0.28;;;18.40;99.90;;;;;;7407328;19;19939;-88
2022/10/24 12:31:30;;;;;;;4.03;0.20;;;18.50;99.90;;;;;;7405931;19;19930;-89
2022/10/24 12:34:35;;;;;;;4.13;0.70;;;18.60;99.90;;;;;;7403895;19;19923;-89
2022/10/24 12:37:13;;;;;;;2.33;0.32;;;18.70;99.90;;;;;;7404033;19;19919;-89
2022/10/24 12:39:44;;;;;;;2.00;0.40;;;18.60;99.90;;;;;;7406368;19;19918;-89
2022/10/24 12:42:16;;;;;;;3.05;0.20;;;18.60;99.90;;;;;;7405108;19;19974;-88
2022/10/24 12:44:49;;;;;;;3.63;0.75;;;18.50;99.90;;;;;;7405157;19;20368;-89
2022/10/24 12:47:37;;;;;;;2.10;0.30;;;18.40;99.90;;;;;;7406063;19;20375;-88
2022/10/24 12:50:36;;;;;;;5.13;0.65;;;18.30;99.90;;;;;;7406401;19;19914;-88
2022/10/24 12:53:19;;;;;;;4.50;0.52;;;18.40;99.90;;;;;;7401109;19;20328;-90
2022/10/24 12:56:24;;;;;;;3.03;0.40;;;18.40;99.90;;;;;;7403822;19;20341;-89
2022/10/24 12:59:02;;;;;;;3.22;0.55;;;18.40;99.90;;;;;;7404407;19;20009;-88
2022/10/24 13:01:37;;;;;;;3.97;0.55;;;18.30;99.90;;;;;;7405812;19;19919;-89
2022/10/24 13:04:36;;;;;;;3.20;0.60;;;18.30;99.90;;;;;;7404278;19;19922;-88
2022/10/24 13:07:42;;;;;;;4.18;0.60;;;18.30;99.90;;;;;;7413057;19;19915;-89
2022/10/24 13:10:52;;;;;;;3.95;0.30;;;18.40;99.90;;;;;;7408930;19;20278;-89
2022/10/24 13:13:43;;;;;;;3.20;0.40;;;18.30;99.90;;;;;;7407789;19;20348;-88
2022/10/24 13:16:24;;;;;;;2.80;0.22;;;18.20;99.90;;;;;;7411097;19;19910;-89
2022/10/24 13:19:04;;;;;;;1.75;0.20;;;18.20;99.90;;;;;;7408463;19;20254;-88
2022/10/24 13:21:36;;;;;;;3.50;0.20;;;18.20;99.90;;;;;;7411631;19;20363;-89
2022/10/24 13:24:22;;;;;;;4.22;0.88;;;18.20;99.90;;;;;;7412233;19;20244;-88